Pinkston, NC

6:33 PM EDT on April 25, 2017 (GMT -0400)
Anson County | | Change Station

Elev 299 ft 35.02 °N, 80.08 °W | Updated 18 minutes ago

Overcast
Overcast
66 °F
Feels Like 66 °F
N
0
Wind Variable Wind from North

Today
High -- | Low -- °F
--% Chance of Precip.
Yesterday
High -- | Low -- °F
Precip. -- in
Pressure 29.69 in
Visibility 10.0 miles
Clouds Scattered Clouds 1700 ft
Mostly Cloudy 4300 ft
Overcast 4900 ft
Dew Point 59 °F
Humidity 78%
Rainfall 0.23 in
Snow Depth Not available.
6:35 AM 8:01 PM
Waning Crescent, 0% visible
METAR KAFP 252215Z AUTO 00000KT 10SM SCT017 BKN043 OVC049 19/15 A2969 RMK AO2 T01890149
Pressure 29.69 in
Visibility 10.0 miles
Clouds Scattered Clouds 1700 ft
Mostly Cloudy 4300 ft
Overcast 4900 ft
Dew Point 59 °F
Humidity 78%
Rainfall 0.23 in
Snow Depth Not available.
6:35 AM 8:01 PM
Waning Crescent, 0% visible
METAR KAFP 252215Z AUTO 00000KT 10SM SCT017 BKN043 OVC049 19/15 A2969 RMK AO2 T01890149

Get Severe Weather Alerts

Thanks for signing up!

Be on the lookout for a verification email in your inbox.

You'll start receiving the daily forecast at 8 AM.

×

10-Day Weather Forecast

Almanac

Astronomy

Apr. 25, 2017 Rise Set
Actual Time
Civil Twilight
Nautical Twilight
Astronomical Twilight
Moon
Length of Visible Light
Length of Day
Tomorrow will be .
, % of the Moon is Illuminated

Today's Extremes

State Highs State Lows

Community

WunderPhotos

WunderBlog® & News

Nearby

Air Quality

  Air Quality AQ Index Pollutant
Not available.

Snow Depth

Station Depth Elevation

Earthquake Activity

City Distance Mag. Time & Date
Minimum magnitude displayed is 2.5.

Coastal Water Temperatures

Place Temperature

Stations

Nearby Weather Stations

Station Location Temp. Windchill Dew Point Humidity Wind Precip. Elev Updated Type
                   

Watches & Warnings

There are currently no watches in effect.